sensor_id;sensor_type;location;lat;lon;timestamp;pressure;altitude;pressure_sealevel;temperature;humidity
61359;BME280;47228;46.762;23.598;2024-03-23T00:53:30;97125.20;;;5.50;67.19
61359;BME280;47228;46.762;23.598;2024-03-23T00:55:59;97123.84;;;5.51;67.25
61359;BME280;47228;46.762;23.598;2024-03-23T00:58:27;97120.92;;;5.52;67.49
61359;BME280;47228;46.762;23.598;2024-03-23T01:00:55;97116.02;;;5.52;67.28
61359;BME280;47228;46.762;23.598;2024-03-23T01:03:23;97115.25;;;5.51;67.40
61359;BME280;47228;46.762;23.598;2024-03-23T01:05:51;97107.84;;;5.50;67.06
61359;BME280;47228;46.762;23.598;2024-03-23T01:08:20;97106.07;;;5.49;66.88
61359;BME280;47228;46.762;23.598;2024-03-23T01:11:00;97107.84;;;5.47;66.95
61359;BME280;47228;46.762;23.598;2024-03-23T01:13:30;97107.17;;;5.43;66.87
61359;BME280;47228;46.762;23.598;2024-03-23T01:15:58;97109.97;;;5.39;66.91
61359;BME280;47228;46.762;23.598;2024-03-23T01:18:26;97105.12;;;5.35;66.92
61359;BME280;47228;46.762;23.598;2024-03-23T01:20:54;97107.16;;;5.33;67.09
61359;BME280;47228;46.762;23.598;2024-03-23T01:23:22;97108.91;;;5.31;66.91
61359;BME280;47228;46.762;23.598;2024-03-23T01:25:53;97100.79;;;5.28;67.16
61359;BME280;47228;46.762;23.598;2024-03-23T01:28:22;97100.95;;;5.27;67.45
61359;BME280;47228;46.762;23.598;2024-03-23T01:30:50;97100.57;;;5.24;67.11
61359;BME280;47228;46.762;23.598;2024-03-23T01:33:18;97096.54;;;5.19;67.43
61359;BME280;47228;46.762;23.598;2024-03-23T01:35:46;97099.05;;;5.14;67.27
61359;BME280;47228;46.762;23.598;2024-03-23T01:38:14;97096.09;;;5.10;67.25
61359;BME280;47228;46.762;23.598;2024-03-23T01:40:42;97092.92;;;5.05;67.31
61359;BME280;47228;46.762;23.598;2024-03-23T01:43:10;97093.74;;;4.99;67.58
61359;BME280;47228;46.762;23.598;2024-03-23T01:45:38;97099.19;;;4.96;67.51
61359;BME280;47228;46.762;23.598;2024-03-23T01:48:06;97096.55;;;4.93;67.80
61359;BME280;47228;46.762;23.598;2024-03-23T01:50:35;97088.83;;;4.91;68.05
61359;BME280;47228;46.762;23.598;2024-03-23T01:53:04;97088.07;;;4.90;68.14
61359;BME280;47228;46.762;23.598;2024-03-23T01:55:33;97084.70;;;4.87;68.02
61359;BME280;47228;46.762;23.598;2024-03-23T01:58:01;97077.59;;;4.83;68.11
61359;BME280;47228;46.762;23.598;2024-03-23T02:00:29;97077.77;;;4.80;68.12
61359;BME280;47228;46.762;23.598;2024-03-23T02:02:57;97075.47;;;4.78;68.31
61359;BME280;47228;46.762;23.598;2024-03-23T02:05:26;97078.67;;;4.76;68.36
61359;BME280;47228;46.762;23.598;2024-03-23T02:07:54;97077.56;;;4.71;68.18
61359;BME280;47228;46.762;23.598;2024-03-23T02:10:22;97072.65;;;4.64;68.33
61359;BME280;47228;46.762;23.598;2024-03-23T02:12:50;97069.30;;;4.61;68.62
61359;BME280;47228;46.762;23.598;2024-03-23T02:15:18;97068.31;;;4.59;68.59
61359;BME280;47228;46.762;23.598;2024-03-23T02:17:46;97066.87;;;4.57;68.65
61359;BME280;47228;46.762;23.598;2024-03-23T02:20:14;97061.63;;;4.53;69.08
61359;BME280;47228;46.762;23.598;2024-03-23T02:22:42;97062.66;;;4.52;68.89
61359;BME280;47228;46.762;23.598;2024-03-23T02:25:10;97060.75;;;4.50;69.07
61359;BME280;47228;46.762;23.598;2024-03-23T02:27:38;97059.09;;;4.47;69.11
61359;BME280;47228;46.762;23.598;2024-03-23T02:30:08;97057.98;;;4.43;69.15
61359;BME280;47228;46.762;23.598;2024-03-23T02:32:36;97053.42;;;4.37;69.33
61359;BME280;47228;46.762;23.598;2024-03-23T02:35:04;97048.34;;;4.32;69.26
61359;BME280;47228;46.762;23.598;2024-03-23T02:37:32;97050.27;;;4.29;69.44
61359;BME280;47228;46.762;23.598;2024-03-23T02:40:00;97047.34;;;4.26;69.59
61359;BME280;47228;46.762;23.598;2024-03-23T02:42:28;97048.69;;;4.27;70.04
61359;BME280;47228;46.762;23.598;2024-03-23T02:44:59;97047.91;;;4.28;70.13
61359;BME280;47228;46.762;23.598;2024-03-23T02:47:27;97048.39;;;4.29;69.98
61359;BME280;47228;46.762;23.598;2024-03-23T02:49:55;97049.92;;;4.29;70.14
61359;BME280;47228;46.762;23.598;2024-03-23T02:52:23;97049.18;;;4.29;70.11
61359;BME280;47228;46.762;23.598;2024-03-23T02:54:51;97050.95;;;4.27;69.81
61359;BME280;47228;46.762;23.598;2024-03-23T02:57:19;97051.95;;;4.24;69.90
61359;BME280;47228;46.762;23.598;2024-03-23T02:59:47;97049.04;;;4.22;69.89
61359;BME280;47228;46.762;23.598;2024-03-23T03:02:15;97049.56;;;4.22;69.91
61359;BME280;47228;46.762;23.598;2024-03-23T03:04:43;97046.17;;;4.23;70.02
61359;BME280;47228;46.762;23.598;2024-03-23T03:07:11;97040.59;;;4.22;70.39
61359;BME280;47228;46.762;23.598;2024-03-23T03:09:39;97042.06;;;4.23;70.54
61359;BME280;47228;46.762;23.598;2024-03-23T03:12:08;97041.64;;;4.24;70.30
61359;BME280;47228;46.762;23.598;2024-03-23T03:14:36;97037.27;;;4.24;70.22
61359;BME280;47228;46.762;23.598;2024-03-23T03:17:05;97034.98;;;4.23;70.32
61359;BME280;47228;46.762;23.598;2024-03-23T03:19:33;97031.59;;;4.22;70.14
61359;BME280;47228;46.762;23.598;2024-03-23T03:22:01;97028.86;;;4.19;70.15
61359;BME280;47228;46.762;23.598;2024-03-23T03:24:29;97025.11;;;4.15;70.24
61359;BME280;47228;46.762;23.598;2024-03-23T03:26:57;97026.69;;;4.12;69.97
61359;BME280;47228;46.762;23.598;2024-03-23T03:29:26;97033.48;;;4.08;69.90
61359;BME280;47228;46.762;23.598;2024-03-23T03:31:53;97034.13;;;4.03;70.08
61359;BME280;47228;46.762;23.598;2024-03-23T03:34:21;97030.84;;;4.01;70.58
61359;BME280;47228;46.762;23.598;2024-03-23T03:36:49;97030.73;;;3.99;70.68
61359;BME280;47228;46.762;23.598;2024-03-23T03:39:17;97034.30;;;3.95;70.62
61359;BME280;47228;46.762;23.598;2024-03-23T03:41:45;97040.36;;;3.93;70.86
61359;BME280;47228;46.762;23.598;2024-03-23T03:44:13;97040.76;;;3.91;70.84
61359;BME280;47228;46.762;23.598;2024-03-23T03:46:41;97045.10;;;3.86;70.98
61359;BME280;47228;46.762;23.598;2024-03-23T03:49:09;97045.73;;;3.83;71.20
61359;BME280;47228;46.762;23.598;2024-03-23T03:51:36;97048.24;;;3.83;71.31
61359;BME280;47228;46.762;23.598;2024-03-23T03:54:04;97044.35;;;3.83;71.28
61359;BME280;47228;46.762;23.598;2024-03-23T03:56:32;97040.25;;;3.82;70.98
61359;BME280;47228;46.762;23.598;2024-03-23T03:59:00;97036.02;;;3.81;71.14
61359;BME280;47228;46.762;23.598;2024-03-23T04:01:28;97036.12;;;3.82;71.36
61359;BME280;47228;46.762;23.598;2024-03-23T04:03:56;97041.21;;;3.82;71.48
61359;BME280;47228;46.762;23.598;2024-03-23T04:06:24;97042.05;;;3.82;71.68
61359;BME280;47228;46.762;23.598;2024-03-23T04:08:52;97045.34;;;3.82;71.55
61359;BME280;47228;46.762;23.598;2024-03-23T04:11:20;97042.77;;;3.80;71.37
61359;BME280;47228;46.762;23.598;2024-03-23T04:13:47;97041.15;;;3.77;71.28
61359;BME280;47228;46.762;23.598;2024-03-23T04:16:29;97039.26;;;3.72;71.00
61359;BME280;47228;46.762;23.598;2024-03-23T04:18:57;97035.84;;;3.68;71.36
61359;BME280;47228;46.762;23.598;2024-03-23T04:21:25;97029.74;;;3.66;71.66
61359;BME280;47228;46.762;23.598;2024-03-23T04:23:53;97026.06;;;3.68;71.96
61359;BME280;47228;46.762;23.598;2024-03-23T04:26:21;97029.84;;;3.70;72.25
61359;BME280;47228;46.762;23.598;2024-03-23T04:28:49;97031.04;;;3.73;72.07
61359;BME280;47228;46.762;23.598;2024-03-23T04:31:17;97033.90;;;3.74;72.07
61359;BME280;47228;46.762;23.598;2024-03-23T04:33:44;97031.21;;;3.75;71.97
61359;BME280;47228;46.762;23.598;2024-03-23T04:36:12;97029.10;;;3.75;71.82
61359;BME280;47228;46.762;23.598;2024-03-23T04:38:40;97028.41;;;3.73;71.92
61359;BME280;47228;46.762;23.598;2024-03-23T04:41:09;97031.38;;;3.72;71.71
61359;BME280;47228;46.762;23.598;2024-03-23T04:43:37;97026.98;;;3.70;71.59
61359;BME280;47228;46.762;23.598;2024-03-23T04:46:06;97024.66;;;3.71;71.59
61359;BME280;47228;46.762;23.598;2024-03-23T04:48:33;97023.79;;;3.72;71.83
61359;BME280;47228;46.762;23.598;2024-03-23T04:51:01;97024.14;;;3.75;71.82
61359;BME280;47228;46.762;23.598;2024-03-23T04:53:29;97018.72;;;3.77;71.79
61359;BME280;47228;46.762;23.598;2024-03-23T04:55:58;97016.92;;;3.78;71.77
61359;BME280;47228;46.762;23.598;2024-03-23T04:58:30;97014.38;;;3.77;71.59
61359;BME280;47228;46.762;23.598;2024-03-23T05:00:57;97015.64;;;3.78;71.75
61359;BME280;47228;46.762;23.598;2024-03-23T05:03:25;97018.43;;;3.80;71.77
61359;BME280;47228;46.762;23.598;2024-03-23T05:05:53;97018.74;;;3.82;71.81
61359;BME280;47228;46.762;23.598;2024-03-23T05:08:21;97017.81;;;3.85;71.84
61359;BME280;47228;46.762;23.598;2024-03-23T05:10:49;97016.00;;;3.91;72.11
61359;BME280;47228;46.762;23.598;2024-03-23T05:13:17;97017.42;;;3.96;72.00
61359;BME280;47228;46.762;23.598;2024-03-23T05:15:54;97014.98;;;4.00;71.69
61359;BME280;47228;46.762;23.598;2024-03-23T05:18:23;97016.20;;;4.05;71.64
61359;BME280;47228;46.762;23.598;2024-03-23T05:20:58;97016.99;;;4.08;71.35
61359;BME280;47228;46.762;23.598;2024-03-23T05:23:26;97022.16;;;4.07;71.32
61359;BME280;47228;46.762;23.598;2024-03-23T05:25:55;97025.87;;;4.07;71.33
61359;BME280;47228;46.762;23.598;2024-03-23T05:28:23;97026.79;;;4.06;71.19
61359;BME280;47228;46.762;23.598;2024-03-23T05:30:52;97025.71;;;4.07;71.25
61359;BME280;47228;46.762;23.598;2024-03-23T05:33:20;97025.33;;;4.10;71.37
61359;BME280;47228;46.762;23.598;2024-03-23T05:35:57;97027.20;;;4.15;71.33
61359;BME280;47228;46.762;23.598;2024-03-23T05:38:25;97027.61;;;4.23;71.58
61359;BME280;47228;46.762;23.598;2024-03-23T05:40:57;97026.91;;;4.31;71.42
61359;BME280;47228;46.762;23.598;2024-03-23T05:43:26;97026.16;;;4.39;71.09
61359;BME280;47228;46.762;23.598;2024-03-23T05:45:57;97030.07;;;4.47;71.40
61359;BME280;47228;46.762;23.598;2024-03-23T05:48:26;97026.60;;;4.54;70.94
61359;BME280;47228;46.762;23.598;2024-03-23T05:50:54;97023.05;;;4.61;71.10
61359;BME280;47228;46.762;23.598;2024-03-23T05:53:22;97023.05;;;4.68;70.83
61359;BME280;47228;46.762;23.598;2024-03-23T05:55:51;97023.70;;;4.72;70.63
61359;BME280;47228;46.762;23.598;2024-03-23T05:58:21;97025.78;;;4.77;70.58
61359;BME280;47228;46.762;23.598;2024-03-23T06:00:57;97024.69;;;4.83;70.24
61359;BME280;47228;46.762;23.598;2024-03-23T06:03:26;97026.90;;;4.86;70.14
61359;BME280;47228;46.762;23.598;2024-03-23T06:05:53;97023.89;;;4.90;70.03
61359;BME280;47228;46.762;23.598;2024-03-23T06:08:22;97021.96;;;4.93;69.82
61359;BME280;47228;46.762;23.598;2024-03-23T06:10:51;97020.63;;;4.95;69.54
61359;BME280;47228;46.762;23.598;2024-03-23T06:13:20;97016.77;;;4.97;69.62
61359;BME280;47228;46.762;23.598;2024-03-23T06:15:50;97015.91;;;5.01;69.66
61359;BME280;47228;46.762;23.598;2024-03-23T06:18:18;97019.48;;;5.06;69.56
61359;BME280;47228;46.762;23.598;2024-03-23T06:20:45;97021.77;;;5.10;69.47
61359;BME280;47228;46.762;23.598;2024-03-23T06:23:14;97025.00;;;5.14;69.44
61359;BME280;47228;46.762;23.598;2024-03-23T06:25:43;97024.77;;;5.19;69.47
61359;BME280;47228;46.762;23.598;2024-03-23T06:28:11;97025.63;;;5.25;69.16
61359;BME280;47228;46.762;23.598;2024-03-23T06:30:39;97021.11;;;5.31;68.74
61359;BME280;47228;46.762;23.598;2024-03-23T06:33:07;97022.17;;;5.35;68.41
61359;BME280;47228;46.762;23.598;2024-03-23T06:35:35;97021.64;;;5.39;68.28
61359;BME280;47228;46.762;23.598;2024-03-23T06:38:03;97023.74;;;5.42;68.09
61359;BME280;47228;46.762;23.598;2024-03-23T06:40:31;97027.31;;;5.45;68.27
61359;BME280;47228;46.762;23.598;2024-03-23T06:42:58;97024.52;;;5.48;67.86
61359;BME280;47228;46.762;23.598;2024-03-23T06:45:27;97025.58;;;5.50;67.90
61359;BME280;47228;46.762;23.598;2024-03-23T06:47:55;97026.01;;;5.54;67.73
61359;BME280;47228;46.762;23.598;2024-03-23T06:50:25;97026.95;;;5.57;67.57
61359;BME280;47228;46.762;23.598;2024-03-23T06:52:53;97030.91;;;5.62;67.83
61359;BME280;47228;46.762;23.598;2024-03-23T06:55:21;97025.90;;;5.69;68.14
61359;BME280;47228;46.762;23.598;2024-03-23T06:57:49;97026.78;;;5.77;67.79
61359;BME280;47228;46.762;23.598;2024-03-23T07:00:17;97025.95;;;5.87;67.79
61359;BME280;47228;46.762;23.598;2024-03-23T07:02:45;97022.23;;;5.98;67.50
61359;BME280;47228;46.762;23.598;2024-03-23T07:05:13;97018.87;;;6.07;67.42
61359;BME280;47228;46.762;23.598;2024-03-23T07:07:41;97016.02;;;6.18;66.91
61359;BME280;47228;46.762;23.598;2024-03-23T07:10:09;97012.45;;;6.29;66.89
61359;BME280;47228;46.762;23.598;2024-03-23T07:12:37;97012.05;;;6.40;66.77
61359;BME280;47228;46.762;23.598;2024-03-23T07:15:05;97007.52;;;6.51;66.81
61359;BME280;47228;46.762;23.598;2024-03-23T07:17:33;97007.02;;;6.64;66.68
61359;BME280;47228;46.762;23.598;2024-03-23T07:20:02;97006.42;;;6.80;66.46
61359;BME280;47228;46.762;23.598;2024-03-23T07:22:31;97007.00;;;6.92;66.10
61359;BME280;47228;46.762;23.598;2024-03-23T07:25:00;97004.33;;;7.06;66.09
61359;BME280;47228;46.762;23.598;2024-03-23T07:27:29;97001.95;;;7.22;65.97
61359;BME280;47228;46.762;23.598;2024-03-23T07:29:57;96997.35;;;7.38;65.60
61359;BME280;47228;46.762;23.598;2024-03-23T07:32:25;96993.80;;;7.53;65.04
61359;BME280;47228;46.762;23.598;2024-03-23T07:34:54;96994.85;;;7.64;64.61
61359;BME280;47228;46.762;23.598;2024-03-23T07:37:22;96993.80;;;7.73;63.93
61359;BME280;47228;46.762;23.598;2024-03-23T07:39:51;96993.58;;;7.80;64.08
61359;BME280;47228;46.762;23.598;2024-03-23T07:42:19;96988.83;;;7.91;63.79
61359;BME280;47228;46.762;23.598;2024-03-23T07:44:47;96988.75;;;8.06;63.58
61359;BME280;47228;46.762;23.598;2024-03-23T07:47:15;96989.98;;;8.17;62.96
61359;BME280;47228;46.762;23.598;2024-03-23T07:49:43;96991.54;;;8.30;62.82
61359;BME280;47228;46.762;23.598;2024-03-23T07:52:11;96990.49;;;8.46;62.62
61359;BME280;47228;46.762;23.598;2024-03-23T07:54:39;96985.01;;;8.56;62.41
61359;BME280;47228;46.762;23.598;2024-03-23T07:57:07;96981.70;;;8.66;62.14
61359;BME280;47228;46.762;23.598;2024-03-23T07:59:35;96977.68;;;8.77;62.24
61359;BME280;47228;46.762;23.598;2024-03-23T08:02:03;96973.19;;;8.91;62.64
61359;BME280;47228;46.762;23.598;2024-03-23T08:04:31;96972.70;;;9.07;62.30
61359;BME280;47228;46.762;23.598;2024-03-23T08:06:59;96967.37;;;9.24;62.54
61359;BME280;47228;46.762;23.598;2024-03-23T08:09:27;96962.67;;;9.43;62.71
61359;BME280;47228;46.762;23.598;2024-03-23T08:11:55;96960.80;;;9.63;62.59
61359;BME280;47228;46.762;23.598;2024-03-23T08:14:22;96960.89;;;9.82;61.79
61359;BME280;47228;46.762;23.598;2024-03-23T08:16:50;96954.00;;;9.97;61.25
61359;BME280;47228;46.762;23.598;2024-03-23T08:19:18;96950.48;;;10.12;61.02
61359;BME280;47228;46.762;23.598;2024-03-23T08:21:46;96954.11;;;10.30;60.78
61359;BME280;47228;46.762;23.598;2024-03-23T08:24:14;96954.19;;;10.42;59.60
61359;BME280;47228;46.762;23.598;2024-03-23T08:26:42;96949.05;;;10.50;59.25
61359;BME280;47228;46.762;23.598;2024-03-23T08:29:10;96949.52;;;10.62;59.22
61359;BME280;47228;46.762;23.598;2024-03-23T08:31:39;96946.66;;;10.76;58.78
61359;BME280;47228;46.762;23.598;2024-03-23T08:34:07;96943.94;;;10.88;58.42
61359;BME280;47228;46.762;23.598;2024-03-23T08:36:34;96939.92;;;10.99;58.12
61359;BME280;47228;46.762;23.598;2024-03-23T08:39:02;96935.14;;;11.11;57.85
61359;BME280;47228;46.762;23.598;2024-03-23T08:41:34;96932.05;;;11.24;57.44
61359;BME280;47228;46.762;23.598;2024-03-23T08:44:02;96929.84;;;11.36;57.14
61359;BME280;47228;46.762;23.598;2024-03-23T08:46:30;96927.83;;;11.50;56.82
61359;BME280;47228;46.762;23.598;2024-03-23T08:48:58;96925.46;;;11.65;56.33
61359;BME280;47228;46.762;23.598;2024-03-23T08:51:26;96917.30;;;11.78;55.30
61359;BME280;47228;46.762;23.598;2024-03-23T08:53:54;96913.21;;;11.89;55.45
61359;BME280;47228;46.762;23.598;2024-03-23T08:56:22;96908.51;;;12.05;55.38
61359;BME280;47228;46.762;23.598;2024-03-23T08:58:50;96905.02;;;12.17;54.81
61359;BME280;47228;46.762;23.598;2024-03-23T09:01:18;96895.73;;;12.31;54.85
61359;BME280;47228;46.762;23.598;2024-03-23T09:03:46;96889.72;;;12.45;54.43
61359;BME280;47228;46.762;23.598;2024-03-23T09:06:14;96890.40;;;12.61;54.52
61359;BME280;47228;46.762;23.598;2024-03-23T09:08:43;96882.92;;;12.79;54.04
61359;BME280;47228;46.762;23.598;2024-03-23T09:11:12;96882.83;;;12.93;53.25
61359;BME280;47228;46.762;23.598;2024-03-23T09:13:41;96881.31;;;13.03;52.81
61359;BME280;47228;46.762;23.598;2024-03-23T09:16:11;96879.35;;;13.13;52.68
61359;BME280;47228;46.762;23.598;2024-03-23T09:18:40;96874.61;;;13.25;52.40
61359;BME280;47228;46.762;23.598;2024-03-23T09:21:12;96871.94;;;13.37;52.15
61359;BME280;47228;46.762;23.598;2024-03-23T09:23:43;96868.55;;;13.49;51.98
61359;BME280;47228;46.762;23.598;2024-03-23T09:26:12;96859.70;;;13.65;52.32
61359;BME280;47228;46.762;23.598;2024-03-23T09:28:40;96861.15;;;13.80;51.44
61359;BME280;47228;46.762;23.598;2024-03-23T09:31:09;96853.86;;;13.95;51.81
61359;BME280;47228;46.762;23.598;2024-03-23T09:33:42;96853.96;;;14.08;51.35
61359;BME280;47228;46.762;23.598;2024-03-23T09:36:10;96843.35;;;14.24;51.65
61359;BME280;47228;46.762;23.598;2024-03-23T09:38:38;96841.29;;;14.43;51.22
61359;BME280;47228;46.762;23.598;2024-03-23T09:41:09;96835.43;;;14.58;50.37
61359;BME280;47228;46.762;23.598;2024-03-23T09:43:37;96829.67;;;14.69;49.69
61359;BME280;47228;46.762;23.598;2024-03-23T09:46:05;96826.15;;;14.79;49.69
61359;BME280;47228;46.762;23.598;2024-03-23T09:48:34;96821.83;;;14.92;49.63
61359;BME280;47228;46.762;23.598;2024-03-23T09:51:02;96821.05;;;15.09;49.42
61359;BME280;47228;46.762;23.598;2024-03-23T09:53:31;96820.52;;;15.20;48.54
61359;BME280;47228;46.762;23.598;2024-03-23T09:56:00;96817.48;;;15.33;48.76
61359;BME280;47228;46.762;23.598;2024-03-23T09:58:29;96813.06;;;15.49;48.42
61359;BME280;47228;46.762;23.598;2024-03-23T10:00:57;96810.06;;;15.60;47.62
61359;BME280;47228;46.762;23.598;2024-03-23T10:03:25;96806.77;;;15.72;47.60
61359;BME280;47228;46.762;23.598;2024-03-23T10:06:01;96805.05;;;15.82;47.16
61359;BME280;47228;46.762;23.598;2024-03-23T10:08:29;96802.17;;;15.92;46.94
61359;BME280;47228;46.762;23.598;2024-03-23T10:11:15;96794.13;;;16.05;46.76
61359;BME280;47228;46.762;23.598;2024-03-23T10:13:44;96791.39;;;16.20;45.53
61359;BME280;47228;46.762;23.598;2024-03-23T10:16:21;96790.50;;;16.35;45.04
61359;BME280;47228;46.762;23.598;2024-03-23T10:18:50;96781.98;;;16.49;44.23
61359;BME280;47228;46.762;23.598;2024-03-23T10:21:18;96776.73;;;16.64;44.60
61359;BME280;47228;46.762;23.598;2024-03-23T10:23:46;96775.48;;;16.85;44.10
61359;BME280;47228;46.762;23.598;2024-03-23T10:26:23;96770.13;;;17.08;44.23
61359;BME280;47228;46.762;23.598;2024-03-23T10:28:59;96762.63;;;17.33;43.65
61359;BME280;47228;46.762;23.598;2024-03-23T10:31:39;96762.66;;;17.57;42.46
61359;BME280;47228;46.762;23.598;2024-03-23T10:34:12;96760.94;;;17.72;42.00
61359;BME280;47228;46.762;23.598;2024-03-23T10:36:40;96763.19;;;17.87;41.62
61359;BME280;47228;46.762;23.598;2024-03-23T10:39:10;96760.52;;;18.00;41.33
61359;BME280;47228;46.762;23.598;2024-03-23T10:41:39;96756.45;;;18.07;40.69
61359;BME280;47228;46.762;23.598;2024-03-23T10:44:09;96750.73;;;18.14;40.70
61359;BME280;47228;46.762;23.598;2024-03-23T10:46:37;96744.89;;;18.26;40.54
61359;BME280;47228;46.762;23.598;2024-03-23T10:49:05;96740.91;;;18.37;40.38
61359;BME280;47228;46.762;23.598;2024-03-23T10:51:33;96735.33;;;18.43;40.11
61359;BME280;47228;46.762;23.598;2024-03-23T10:54:04;96731.77;;;18.48;39.41
61359;BME280;47228;46.762;23.598;2024-03-23T10:56:35;96726.88;;;18.50;39.36
61359;BME280;47228;46.762;23.598;2024-03-23T10:59:05;96722.89;;;18.44;38.84
61359;BME280;47228;46.762;23.598;2024-03-23T11:01:35;96719.56;;;18.40;39.00
61359;BME280;47228;46.762;23.598;2024-03-23T11:04:03;96718.76;;;18.35;38.99
61359;BME280;47228;46.762;23.598;2024-03-23T11:06:37;96713.39;;;18.28;39.09
61359;BME280;47228;46.762;23.598;2024-03-23T11:15:12;96700.16;;;18.35;38.75
61359;BME280;47228;46.762;23.598;2024-03-23T11:17:40;96696.93;;;18.33;38.74
61359;BME280;47228;46.762;23.598;2024-03-23T11:20:08;96696.66;;;18.28;38.20
61359;BME280;47228;46.762;23.598;2024-03-23T11:22:46;96695.17;;;18.15;38.28
61359;BME280;47228;46.762;23.598;2024-03-23T11:25:23;96687.99;;;18.04;38.17
61359;BME280;47228;46.762;23.598;2024-03-23T11:28:10;96682.65;;;17.92;38.24
61359;BME280;47228;46.762;23.598;2024-03-23T11:30:39;96675.98;;;17.71;38.13
61359;BME280;47228;46.762;23.598;2024-03-23T11:33:08;96670.63;;;17.55;38.25
61359;BME280;47228;46.762;23.598;2024-03-23T11:35:39;96664.77;;;17.47;38.80
61359;BME280;47228;46.762;23.598;2024-03-23T11:38:12;96660.23;;;17.41;39.26
61359;BME280;47228;46.762;23.598;2024-03-23T11:40:42;96655.77;;;17.38;39.09
61359;BME280;47228;46.762;23.598;2024-03-23T11:43:15;96651.63;;;17.29;38.79
61359;BME280;47228;46.762;23.598;2024-03-23T11:45:48;96646.60;;;17.19;38.93
61359;BME280;47228;46.762;23.598;2024-03-23T11:48:20;96645.98;;;17.09;38.91
61359;BME280;47228;46.762;23.598;2024-03-23T11:50:51;96636.19;;;16.99;39.37
61359;BME280;47228;46.762;23.598;2024-03-23T11:53:22;96631.52;;;16.93;39.42
61359;BME280;47228;46.762;23.598;2024-03-23T11:58:21;96618.85;;;16.91;39.55
61359;BME280;47228;46.762;23.598;2024-03-23T12:01:02;96616.70;;;16.88;39.32
61359;BME280;47228;46.762;23.598;2024-03-23T12:03:31;96612.26;;;16.81;39.40
61359;BME280;47228;46.762;23.598;2024-03-23T12:06:04;96608.39;;;16.78;39.91
61359;BME280;47228;46.762;23.598;2024-03-23T12:08:34;96604.20;;;16.78;39.80
61359;BME280;47228;46.762;23.598;2024-03-23T12:11:13;96599.58;;;16.76;39.69
61359;BME280;47228;46.762;23.598;2024-03-23T12:13:44;96600.17;;;16.73;40.13
61359;BME280;47228;46.762;23.598;2024-03-23T12:16:14;96596.95;;;16.75;40.07
61359;BME280;47228;46.762;23.598;2024-03-23T12:18:46;96593.20;;;16.79;39.78
61359;BME280;47228;46.762;23.598;2024-03-23T12:21:15;96585.45;;;16.80;39.73
61359;BME280;47228;46.762;23.598;2024-03-23T12:23:44;96574.29;;;16.78;39.74
61359;BME280;47228;46.762;23.598;2024-03-23T12:26:14;96573.90;;;16.77;39.76
61359;BME280;47228;46.762;23.598;2024-03-23T12:28:43;96567.46;;;16.76;39.90
61359;BME280;47228;46.762;23.598;2024-03-23T12:31:11;96556.10;;;16.78;39.87
61359;BME280;47228;46.762;23.598;2024-03-23T12:33:39;96553.80;;;16.75;39.41
61359;BME280;47228;46.762;23.598;2024-03-23T12:36:07;96550.08;;;16.72;39.63
61359;BME280;47228;46.762;23.598;2024-03-23T12:38:35;96546.85;;;16.71;39.86
61359;BME280;47228;46.762;23.598;2024-03-23T12:41:02;96539.89;;;16.73;40.18
61359;BME280;47228;46.762;23.598;2024-03-23T12:43:32;96536.35;;;16.73;39.81
61359;BME280;47228;46.762;23.598;2024-03-23T12:46:00;96534.46;;;16.71;39.99
61359;BME280;47228;46.762;23.598;2024-03-23T12:48:28;96539.36;;;16.75;39.95
61359;BME280;47228;46.762;23.598;2024-03-23T12:50:56;96538.29;;;16.79;39.83
61359;BME280;47228;46.762;23.598;2024-03-23T12:53:24;96533.38;;;16.83;39.89
61359;BME280;47228;46.762;23.598;2024-03-23T12:55:52;96528.35;;;16.86;39.66
61359;BME280;47228;46.762;23.598;2024-03-23T12:58:20;96524.81;;;16.91;39.79
61359;BME280;47228;46.762;23.598;2024-03-23T13:00:47;96523.27;;;16.97;39.76
61359;BME280;47228;46.762;23.598;2024-03-23T13:03:15;96521.25;;;17.02;39.46
61359;BME280;47228;46.762;23.598;2024-03-23T13:05:43;96516.77;;;17.07;39.39
61359;BME280;47228;46.762;23.598;2024-03-23T13:08:12;96510.45;;;17.08;39.21
61359;BME280;47228;46.762;23.598;2024-03-23T13:10:44;96507.02;;;17.10;39.33
61359;BME280;47228;46.762;23.598;2024-03-23T13:13:12;96505.04;;;17.12;39.28
61359;BME280;47228;46.762;23.598;2024-03-23T13:15:40;96499.94;;;17.11;38.91
61359;BME280;47228;46.762;23.598;2024-03-23T13:18:08;96497.46;;;17.10;39.04
61359;BME280;47228;46.762;23.598;2024-03-23T13:20:36;96493.82;;;17.09;39.45
61359;BME280;47228;46.762;23.598;2024-03-23T13:23:05;96489.27;;;17.10;39.16
61359;BME280;47228;46.762;23.598;2024-03-23T13:25:32;96489.09;;;17.11;38.94
61359;BME280;47228;46.762;23.598;2024-03-23T13:28:00;96483.94;;;17.15;39.18
61359;BME280;47228;46.762;23.598;2024-03-23T13:30:28;96482.23;;;17.19;38.98
61359;BME280;47228;46.762;23.598;2024-03-23T13:32:56;96476.39;;;17.22;38.99
61359;BME280;47228;46.762;23.598;2024-03-23T13:35:24;96469.35;;;17.27;39.10
61359;BME280;47228;46.762;23.598;2024-03-23T13:37:52;96467.91;;;17.32;39.12
61359;BME280;47228;46.762;23.598;2024-03-23T13:40:20;96465.80;;;17.37;39.10
61359;BME280;47228;46.762;23.598;2024-03-23T13:42:47;96461.52;;;17.37;38.80
61359;BME280;47228;46.762;23.598;2024-03-23T13:45:15;96460.66;;;17.36;38.93
61359;BME280;47228;46.762;23.598;2024-03-23T13:47:44;96458.09;;;17.35;39.01
61359;BME280;47228;46.762;23.598;2024-03-23T13:50:12;96454.48;;;17.36;38.79
61359;BME280;47228;46.762;23.598;2024-03-23T13:52:40;96454.91;;;17.38;38.83
61359;BME280;47228;46.762;23.598;2024-03-23T13:55:08;96452.71;;;17.38;38.73
61359;BME280;47228;46.762;23.598;2024-03-23T13:57:36;96448.31;;;17.39;38.79
61359;BME280;47228;46.762;23.598;2024-03-23T14:00:07;96442.73;;;17.41;38.90
61359;BME280;47228;46.762;23.598;2024-03-23T14:02:35;96437.73;;;17.46;39.10
61359;BME280;47228;46.762;23.598;2024-03-23T14:05:03;96434.29;;;17.52;39.31